EKSP/SKS METAR and TAF weather

Enter ICAO airport designator
Station Type Date Time Source
EKSP METAR 2021/07/30 06:20 UTC NOAA

EKSP 300620Z 24015KT 9999 BKN014 FEW030TCU BKN038 17/14 Q1003 TEMPO 24018G28KT 6000 SHRA SCT030CB BECMG SCT020


Station Type Date Time Source
EKSP Decoded METAR 2021/07/30 06:20 UTC NOAA

Skrydstrup, Denmark (EKSP) 55-14N 009-16E 47M
Jul 30, 2021 - 02:20 AM EDT / 2021.07.30 0620 UTC
Wind: from the WSW (240 degrees) at 17 MPH (15 KT):0
Visibility: greater than 7 mile(s):0
Sky conditions: mostly cloudy
Weather: Cumulonimbus clouds, towering cumulus clouds observed
Temperature: 62 F (17 C)
Dew Point: 57 F (14 C)
Relative Humidity: 82%
Pressure (altimeter): 29.62 in. Hg (1003 hPa)
ob: EKSP 300620Z 24015KT 9999 BKN014 FEW030TCU BKN038 17/14 Q1003 TEMPO 24018G28KT 6000 SHRA SCT030CB BECMG SCT020
cycle: 6

Station Type Date Time Source
EKSP TAF 2021/07/30 06:31 UTC NOAA

TAF EKSP 300501Z 3006/3106 25015KT 9999 SCT020TCU
TEMPO 3006/3012 24018G28KT 6000 -SHRA BKN012 SCT030CB
TEMPO 3012/3015 26012G22KT
BECMG 3015/3018 23008KT
TEMPO 3101/3106 4000 SHRA SCT020CB

Example: see airport list